Terminal Aerodrome Forecast
Issued by NWS

Home | Current Version | Previous Version | Text Only | Print | Product List | Glossary On
Versions: 1 2 3 4 5 6 7 8 9 10 11 12 13 14
000
FTUS45 KRIW 262300
TAFLND
TAF
KLND 262321Z 2700/2724 33006KT 6SM -SN SCT020 BKN040
     FM270200 28006KT P6SM SCT035 BKN090
     FM270900 VRB04KT P6SM VCFG SCT004 SCT040
     FM271800 20009KT P6SM SCT030 BKN090 WS020/26035KT=

USA.gov is the U.S. government's official web portal to all federal, state and local government web resources and services.